createdAt,value
2017-12-20T00:00:11.643Z,33.57
2017-12-20T00:02:39.888Z,28.10
2017-12-20T00:05:08.138Z,22.67
2017-12-20T00:07:36.404Z,20.07
2017-12-20T00:10:04.685Z,10.23
2017-12-20T00:12:32.948Z,9.50
2017-12-20T00:15:01.195Z,7.63
2017-12-20T00:17:30.187Z,10.90
2017-12-20T00:19:58.904Z,11.17
2017-12-20T00:22:27.165Z,9.60
2017-12-20T00:24:56.183Z,24.10
2017-12-20T00:27:24.433Z,17.20
2017-12-20T00:29:53.431Z,15.23
2017-12-20T00:32:22.464Z,19.33
2017-12-20T00:34:51.233Z,24.00
2017-12-20T00:37:19.245Z,27.33
2017-12-20T00:39:47.258Z,26.70
2017-12-20T00:42:15.513Z,19.53
2017-12-20T00:44:43.762Z,16.50
2017-12-20T00:47:12.792Z,14.93
2017-12-20T00:49:41.021Z,12.20
2017-12-20T00:52:09.442Z,11.23
2017-12-20T00:54:37.719Z,11.40
2017-12-20T00:57:05.955Z,11.07
2017-12-20T00:59:34.233Z,11.80
2017-12-20T01:02:02.500Z,8.07
2017-12-20T01:04:31.480Z,4.83
2017-12-20T01:06:59.746Z,5.30
2017-12-20T01:09:28.755Z,4.57
2017-12-20T01:11:57.014Z,5.73
2017-12-20T01:14:25.221Z,6.33
2017-12-20T01:16:53.461Z,6.03
2017-12-20T01:19:22.504Z,7.87
2017-12-20T01:21:50.756Z,7.73
2017-12-20T01:24:19.035Z,9.57
2017-12-20T01:26:47.266Z,5.47
2017-12-20T01:29:15.502Z,7.33
2017-12-20T01:31:43.757Z,7.03
2017-12-20T01:34:12.755Z,6.70
2017-12-20T01:36:41.006Z,11.10
2017-12-20T01:39:10.058Z,8.90
2017-12-20T01:41:38.277Z,18.20
2017-12-20T01:44:07.302Z,9.90
2017-12-20T01:46:35.597Z,13.07
2017-12-20T01:49:03.919Z,14.27
2017-12-20T01:51:32.130Z,13.17
2017-12-20T01:54:00.384Z,7.30
2017-12-20T01:56:28.662Z,17.30
2017-12-20T01:58:57.097Z,15.47
2017-12-20T02:01:25.361Z,11.77
2017-12-20T02:03:54.140Z,5.60
2017-12-20T02:06:22.398Z,6.03
2017-12-20T02:08:51.405Z,7.23
2017-12-20T02:11:19.635Z,8.80
2017-12-20T02:13:47.884Z,10.87
2017-12-20T02:16:16.933Z,10.33
2017-12-20T02:18:46.778Z,8.90
2017-12-20T02:21:15.794Z,8.13
2017-12-20T02:23:44.022Z,7.10
2017-12-20T02:26:13.048Z,11.83
2017-12-20T02:28:41.289Z,7.50
2017-12-20T02:31:10.304Z,10.23
2017-12-20T02:33:38.594Z,12.30
2017-12-20T02:36:06.828Z,9.13
2017-12-20T02:38:36.894Z,7.00
2017-12-20T02:41:07.913Z,11.43
2017-12-20T02:43:37.448Z,8.07
2017-12-20T02:46:05.726Z,10.90
2017-12-20T02:48:34.024Z,8.40
2017-12-20T02:51:02.291Z,6.93
2017-12-20T02:53:30.546Z,12.83
2017-12-20T02:55:58.834Z,5.90
2017-12-20T02:58:27.093Z,11.47
2017-12-20T03:00:55.351Z,9.63
2017-12-20T03:03:24.373Z,5.03
2017-12-20T03:05:52.646Z,6.83
2017-12-20T03:08:20.916Z,7.90
2017-12-20T03:10:49.134Z,6.10
2017-12-20T03:13:17.402Z,5.60
2017-12-20T03:15:45.642Z,6.77
2017-12-20T03:18:13.974Z,7.67
2017-12-20T03:20:42.243Z,5.90
2017-12-20T03:23:10.481Z,6.13
2017-12-20T03:25:38.715Z,8.30
2017-12-20T03:28:06.953Z,11.00
2017-12-20T03:30:35.279Z,4.20
2017-12-20T03:33:03.506Z,4.70
2017-12-20T03:35:31.765Z,4.83
2017-12-20T03:38:00.032Z,7.10
2017-12-20T03:40:29.037Z,8.97
2017-12-20T03:42:57.313Z,7.60
2017-12-20T03:45:25.662Z,5.37
2017-12-20T03:47:53.899Z,4.70
2017-12-20T03:50:22.135Z,4.60
2017-12-20T03:52:50.466Z,3.93
2017-12-20T03:55:18.696Z,5.17
2017-12-20T03:57:46.945Z,5.10
2017-12-20T04:00:15.191Z,2.90
2017-12-20T04:02:43.414Z,4.03
2017-12-20T04:05:12.473Z,4.83
2017-12-20T04:07:40.713Z,2.53
2017-12-20T04:10:08.951Z,3.87
2017-12-20T04:12:37.974Z,2.80
2017-12-20T04:15:06.200Z,3.43
2017-12-20T04:17:35.805Z,3.37
2017-12-20T04:20:04.027Z,3.20
2017-12-20T04:22:33.049Z,2.50
2017-12-20T04:25:01.306Z,3.63
2017-12-20T04:27:30.323Z,3.80
2017-12-20T04:29:58.571Z,2.60
2017-12-20T04:32:27.562Z,4.90
2017-12-20T04:34:56.561Z,6.03
2017-12-20T04:37:25.573Z,4.23
2017-12-20T04:39:53.862Z,3.13
2017-12-20T04:42:22.069Z,2.77
2017-12-20T04:44:50.326Z,3.43
2017-12-20T04:47:18.568Z,7.07
2017-12-20T04:49:47.629Z,6.03
2017-12-20T04:52:15.874Z,9.70
2017-12-20T04:54:44.114Z,9.07
2017-12-20T04:57:13.134Z,7.30
2017-12-20T04:59:41.362Z,7.17
2017-12-20T05:02:09.592Z,7.03
2017-12-20T05:04:37.862Z,8.53
2017-12-20T05:07:06.822Z,3.47
2017-12-20T05:09:35.118Z,4.70
2017-12-20T05:12:04.112Z,8.03
2017-12-20T05:14:33.141Z,4.07
2017-12-20T05:17:01.398Z,3.73
2017-12-20T05:19:29.644Z,4.30
2017-12-20T05:21:58.687Z,5.23
2017-12-20T05:24:26.915Z,6.50
2017-12-20T05:26:56.103Z,6.73
2017-12-20T05:29:25.151Z,6.23
2017-12-20T05:31:53.423Z,5.10
2017-12-20T05:34:21.670Z,6.17
2017-12-20T05:36:50.687Z,5.27
2017-12-20T05:39:18.974Z,7.13
2017-12-20T05:41:47.208Z,11.83
2017-12-20T05:44:15.490Z,8.23
2017-12-20T05:46:43.699Z,6.67
2017-12-20T05:49:11.952Z,12.90
2017-12-20T05:51:40.958Z,14.30
2017-12-20T05:54:09.982Z,6.23
2017-12-20T05:56:38.216Z,16.77
2017-12-20T05:59:07.249Z,17.10
2017-12-20T06:01:35.514Z,11.90
2017-12-20T06:04:03.743Z,9.93
2017-12-20T06:06:32.003Z,7.23
2017-12-20T06:09:00.221Z,10.97
2017-12-20T06:11:29.221Z,5.20
2017-12-20T06:13:58.222Z,9.60
2017-12-20T06:16:27.230Z,14.33
2017-12-20T06:18:55.491Z,7.93
2017-12-20T06:21:23.739Z,5.77
2017-12-20T06:23:51.967Z,8.90
2017-12-20T06:26:20.202Z,10.90
2017-12-20T06:28:49.249Z,10.77
2017-12-20T06:31:17.521Z,13.40
2017-12-20T06:33:45.763Z,8.77
2017-12-20T06:36:14.774Z,12.77
2017-12-20T06:38:43.069Z,12.60
2017-12-20T06:41:11.293Z,12.73
2017-12-20T06:43:39.521Z,26.43
2017-12-20T06:46:07.791Z,18.17
2017-12-20T06:48:36.029Z,18.20
2017-12-20T06:51:05.094Z,16.33
2017-12-20T06:53:33.427Z,12.27
2017-12-20T06:56:02.434Z,10.60
2017-12-20T06:58:30.685Z,13.90
2017-12-20T07:00:59.683Z,11.00
2017-12-20T07:03:27.957Z,10.33
2017-12-20T07:05:56.993Z,12.77
2017-12-20T07:08:25.244Z,11.27
2017-12-20T07:10:53.476Z,14.47
2017-12-20T07:13:21.754Z,11.30
2017-12-20T07:15:49.971Z,19.00
2017-12-20T07:18:18.235Z,16.30
2017-12-20T07:20:46.483Z,13.87
2017-12-20T07:23:14.720Z,12.60
2017-12-20T07:25:42.979Z,13.50
2017-12-20T07:28:11.226Z,10.57
2017-12-20T07:30:40.242Z,12.43
2017-12-20T07:33:08.490Z,7.33
2017-12-20T07:35:36.762Z,10.90
2017-12-20T07:38:05.023Z,9.30
2017-12-20T07:40:33.290Z,12.00
2017-12-20T07:43:01.548Z,10.50
2017-12-20T07:45:30.552Z,15.73
2017-12-20T07:47:58.773Z,10.57
2017-12-20T07:50:27.009Z,6.97
2017-12-20T07:52:55.270Z,13.43
2017-12-20T07:55:23.522Z,8.00
2017-12-20T07:57:51.778Z,13.10
2017-12-20T08:00:20.006Z,18.80
2017-12-20T08:02:48.264Z,12.97
2017-12-20T08:05:17.295Z,12.27
2017-12-20T08:07:45.536Z,13.13
2017-12-20T08:10:14.664Z,17.23
2017-12-20T08:12:42.918Z,9.17
2017-12-20T08:15:11.205Z,10.10
2017-12-20T08:17:39.458Z,14.90
2017-12-20T08:20:07.723Z,9.10
2017-12-20T08:22:36.785Z,20.80
2017-12-20T08:25:04.986Z,8.60
2017-12-20T08:27:34.075Z,14.10
2017-12-20T08:30:02.338Z,12.23
2017-12-20T08:32:30.582Z,10.80
2017-12-20T08:34:58.826Z,11.60
2017-12-20T08:37:27.089Z,8.13
2017-12-20T08:39:55.326Z,12.67
2017-12-20T08:42:23.562Z,10.80
2017-12-20T08:44:51.855Z,13.00
2017-12-20T08:47:20.083Z,10.80
2017-12-20T08:49:48.372Z,16.27
2017-12-20T08:52:17.408Z,10.57
2017-12-20T08:54:45.666Z,10.70
2017-12-20T08:57:14.689Z,13.77
2017-12-20T08:59:42.955Z,17.80
2017-12-20T09:02:11.231Z,16.03
2017-12-20T09:04:39.458Z,8.80
2017-12-20T09:07:07.739Z,15.10
2017-12-20T09:09:36.038Z,10.53
2017-12-20T09:12:05.051Z,8.03
2017-12-20T09:14:33.317Z,11.90
2017-12-20T09:17:02.331Z,12.00
2017-12-20T09:19:30.603Z,12.43
2017-12-20T09:21:59.606Z,10.83
2017-12-20T09:24:27.856Z,10.47
2017-12-20T09:26:56.194Z,17.83
2017-12-20T09:29:24.449Z,10.33
2017-12-20T09:31:52.703Z,19.57
2017-12-20T09:34:20.955Z,11.47
2017-12-20T09:36:49.203Z,16.90
2017-12-20T09:39:17.483Z,18.87
2017-12-20T09:41:46.146Z,11.87
2017-12-20T09:44:14.406Z,8.87
2017-12-20T09:46:42.675Z,9.67
2017-12-20T09:49:11.676Z,11.63
2017-12-20T09:51:39.948Z,12.47
2017-12-20T09:54:08.211Z,11.53
2017-12-20T09:56:37.224Z,17.87
2017-12-20T09:59:05.496Z,27.37
2017-12-20T10:01:33.768Z,16.97
2017-12-20T10:04:02.840Z,10.47
2017-12-20T10:06:31.097Z,24.30
2017-12-20T10:08:59.368Z,16.67
2017-12-20T10:11:27.614Z,13.80
2017-12-20T10:13:55.838Z,11.33
2017-12-20T10:16:24.902Z,16.73
2017-12-20T10:18:53.163Z,12.40
2017-12-20T10:21:22.175Z,20.40
2017-12-20T10:23:50.451Z,14.33
2017-12-20T10:26:18.755Z,13.37
2017-12-20T10:28:46.984Z,27.60
2017-12-20T10:31:15.287Z,11.20
2017-12-20T10:33:43.509Z,15.40
2017-12-20T10:36:11.834Z,17.17
2017-12-20T10:38:40.831Z,22.63
2017-12-20T10:41:09.076Z,15.40
2017-12-20T10:43:38.095Z,12.53
2017-12-20T10:46:06.352Z,15.37
2017-12-20T10:48:35.371Z,13.00
2017-12-20T10:51:04.662Z,15.00
2017-12-20T10:53:33.765Z,19.37
2017-12-20T10:56:02.034Z,11.53
2017-12-20T10:58:30.312Z,19.60
2017-12-20T11:00:59.323Z,13.10
2017-12-20T11:03:27.594Z,12.97
2017-12-20T11:05:55.845Z,18.23
2017-12-20T11:08:24.869Z,18.10
2017-12-20T11:10:53.168Z,26.97
2017-12-20T11:13:21.408Z,14.93
2017-12-20T11:15:49.681Z,19.40
2017-12-20T11:18:17.924Z,14.93
2017-12-20T11:20:46.185Z,15.40
2017-12-20T11:23:14.436Z,16.50
2017-12-20T11:25:42.753Z,14.40
2017-12-20T11:28:11.001Z,14.10
2017-12-20T11:30:39.285Z,19.20
2017-12-20T11:33:07.624Z,18.80
2017-12-20T11:35:35.867Z,17.60
2017-12-20T11:38:04.175Z,19.47
2017-12-20T11:40:32.442Z,16.80
2017-12-20T11:43:00.712Z,20.00
2017-12-20T11:45:29.750Z,20.70
2017-12-20T11:47:58.009Z,21.10
2017-12-20T11:50:26.266Z,23.70
2017-12-20T11:52:54.563Z,20.37
2017-12-20T11:55:23.629Z,22.07
2017-12-20T11:57:51.912Z,19.77
2017-12-20T12:00:20.149Z,21.37
2017-12-20T12:02:48.564Z,23.63
2017-12-20T12:05:16.879Z,25.77
2017-12-20T12:07:45.128Z,22.20
2017-12-20T12:10:14.163Z,20.77
2017-12-20T12:12:42.402Z,26.83
2017-12-20T12:15:11.428Z,25.73
2017-12-20T12:17:39.696Z,25.67
2017-12-20T12:20:07.943Z,22.10
2017-12-20T12:22:36.977Z,28.67
2017-12-20T12:25:05.294Z,23.60
2017-12-20T12:27:33.534Z,20.33
2017-12-20T12:30:01.834Z,24.43
2017-12-20T12:32:30.091Z,27.57
2017-12-20T12:34:58.333Z,26.30
2017-12-20T12:37:26.622Z,36.33
2017-12-20T12:39:54.941Z,31.13
2017-12-20T12:42:23.212Z,36.93
2017-12-20T12:44:51.737Z,27.07
2017-12-20T12:47:20.792Z,25.80
2017-12-20T12:49:49.064Z,32.10
2017-12-20T12:52:17.343Z,32.00
2017-12-20T12:54:45.623Z,47.90
2017-12-20T12:57:13.895Z,35.53
2017-12-20T12:59:42.190Z,29.67
2017-12-20T13:02:10.458Z,31.83
2017-12-20T13:04:38.718Z,28.50
2017-12-20T13:07:06.973Z,34.83
2017-12-20T13:09:35.273Z,32.10
2017-12-20T13:12:03.537Z,32.50
2017-12-20T13:14:31.842Z,33.30
2017-12-20T13:17:00.094Z,47.43
2017-12-20T13:19:28.355Z,34.37
2017-12-20T13:21:57.457Z,38.40
2017-12-20T13:24:26.470Z,32.07
2017-12-20T13:26:54.753Z,31.40
2017-12-20T13:29:23.001Z,36.23
2017-12-20T13:31:52.029Z,32.83
2017-12-20T13:34:20.261Z,31.53
2017-12-20T13:36:48.511Z,38.40
2017-12-20T13:39:16.874Z,26.03
2017-12-20T13:41:45.158Z,28.70
2017-12-20T13:44:13.431Z,27.37
2017-12-20T13:46:41.692Z,29.50
2017-12-20T13:49:10.843Z,39.63
2017-12-20T13:51:39.142Z,24.70
2017-12-20T13:54:08.179Z,29.83
2017-12-20T13:56:36.433Z,29.77
2017-12-20T13:59:04.748Z,28.33
2017-12-20T14:01:32.990Z,24.80
2017-12-20T14:04:01.253Z,19.47
2017-12-20T14:06:29.527Z,24.00
2017-12-20T14:08:58.589Z,27.30
2017-12-20T14:11:26.884Z,26.93
2017-12-20T14:13:55.152Z,26.77
2017-12-20T14:16:23.417Z,21.43
2017-12-20T14:18:51.683Z,25.50
2017-12-20T14:21:19.938Z,28.53
2017-12-20T14:23:48.245Z,30.67
2017-12-20T14:26:16.512Z,21.23
2017-12-20T14:28:44.787Z,29.60
2017-12-20T14:31:13.023Z,28.17
2017-12-20T14:33:42.099Z,23.20
2017-12-20T14:36:11.126Z,26.53
2017-12-20T14:38:39.404Z,35.87
2017-12-20T14:41:08.432Z,37.90
2017-12-20T14:43:36.666Z,29.83
2017-12-20T14:46:04.941Z,19.27
2017-12-20T14:48:33.228Z,18.50
2017-12-20T14:51:01.590Z,25.20
2017-12-20T14:53:29.858Z,34.27
2017-12-20T14:55:58.895Z,23.67
2017-12-20T14:58:27.177Z,65.83
2017-12-20T15:00:55.473Z,26.87
2017-12-20T15:03:23.704Z,26.57
2017-12-20T15:05:51.977Z,29.83
2017-12-20T15:08:20.251Z,23.23
2017-12-20T15:10:49.279Z,27.50
2017-12-20T15:13:17.571Z,22.30
2017-12-20T15:15:45.860Z,25.87
2017-12-20T15:18:14.127Z,24.03
2017-12-20T15:20:42.427Z,27.27
2017-12-20T15:23:10.698Z,23.27
2017-12-20T15:25:38.933Z,22.20
2017-12-20T15:28:07.231Z,22.13
2017-12-20T15:30:35.489Z,21.87
2017-12-20T15:33:03.795Z,22.40
2017-12-20T15:35:32.114Z,18.97
2017-12-20T15:38:01.195Z,21.90
2017-12-20T15:40:29.463Z,17.40
2017-12-20T15:42:57.746Z,19.87
2017-12-20T15:45:26.246Z,19.10
2017-12-20T15:47:54.521Z,19.10
2017-12-20T15:50:22.829Z,16.20
2017-12-20T15:52:51.956Z,19.17
2017-12-20T15:55:20.289Z,36.80
2017-12-20T15:57:49.323Z,11.70
2017-12-20T16:00:17.538Z,21.80
2017-12-20T16:02:45.884Z,20.67
2017-12-20T16:05:14.170Z,17.50
2017-12-20T16:07:42.478Z,19.50
2017-12-20T16:10:10.752Z,21.43
2017-12-20T16:12:39.094Z,24.57
2017-12-20T16:15:07.353Z,19.97
2017-12-20T16:17:35.603Z,20.10
2017-12-20T16:20:03.926Z,36.47
2017-12-20T16:22:32.246Z,55.93
2017-12-20T16:25:00.553Z,100.83
2017-12-20T16:27:28.862Z,27.83
2017-12-20T16:29:58.043Z,19.60
2017-12-20T16:32:26.318Z,23.60
2017-12-20T16:34:54.606Z,38.07
2017-12-20T16:37:22.900Z,21.80
2017-12-20T16:39:51.129Z,21.03
2017-12-20T16:42:20.184Z,19.20
2017-12-20T16:44:48.474Z,23.07
2017-12-20T16:47:17.550Z,14.93
2017-12-20T16:49:45.807Z,18.50
2017-12-20T16:52:14.078Z,20.17
2017-12-20T16:54:42.381Z,18.30
2017-12-20T16:57:10.716Z,20.83
2017-12-20T16:59:38.970Z,21.07
2017-12-20T17:02:08.021Z,38.37
2017-12-20T17:04:36.277Z,27.20
2017-12-20T17:07:04.571Z,29.33
2017-12-20T17:09:33.814Z,24.40
2017-12-20T17:12:02.155Z,26.90
2017-12-20T17:14:30.529Z,22.37
2017-12-20T17:16:58.885Z,31.93
2017-12-20T17:19:27.945Z,48.53
2017-12-20T17:21:56.183Z,37.57
2017-12-20T17:24:24.467Z,32.57
2017-12-20T17:26:52.753Z,30.83
2017-12-20T17:29:21.058Z,29.50
2017-12-20T17:31:49.298Z,42.00
2017-12-20T17:34:17.568Z,37.10
2017-12-20T17:36:45.894Z,41.80
2017-12-20T17:39:14.239Z,39.70
2017-12-20T17:41:42.555Z,56.00
2017-12-20T17:44:10.819Z,47.23
2017-12-20T17:46:39.512Z,49.80
2017-12-20T17:49:08.569Z,45.60
2017-12-20T17:51:36.824Z,38.30
2017-12-20T17:54:05.154Z,31.13
2017-12-20T17:56:33.476Z,38.47
2017-12-20T17:59:01.815Z,34.90
2017-12-20T18:01:30.084Z,24.93
2017-12-20T18:03:59.178Z,30.20
2017-12-20T18:06:27.459Z,36.83
2017-12-20T18:08:56.593Z,36.43
2017-12-20T18:11:25.630Z,34.73
2017-12-20T18:13:53.915Z,33.07
2017-12-20T18:16:22.298Z,31.17
2017-12-20T18:18:50.533Z,28.37
2017-12-20T18:21:18.852Z,34.20
2017-12-20T18:23:47.124Z,32.23
2017-12-20T18:26:15.435Z,38.73
2017-12-20T18:28:43.667Z,36.87
2017-12-20T18:31:13.291Z,34.60
2017-12-20T18:33:41.623Z,31.90
2017-12-20T18:36:10.691Z,41.00
2017-12-20T18:38:39.775Z,31.50
2017-12-20T18:41:08.084Z,31.53
2017-12-20T18:43:36.437Z,33.67
2017-12-20T18:46:05.047Z,35.40
2017-12-20T18:48:33.332Z,36.47
2017-12-20T18:51:01.806Z,36.27
2017-12-20T18:53:30.832Z,45.37
2017-12-20T18:55:59.184Z,36.90
2017-12-20T18:58:28.216Z,45.70
2017-12-20T19:00:56.684Z,52.40
2017-12-20T19:03:25.145Z,32.60
2017-12-20T19:05:54.995Z,42.90
2017-12-20T19:08:23.290Z,34.70
2017-12-20T19:10:51.611Z,37.47
2017-12-20T19:13:19.915Z,43.80
2017-12-20T19:15:48.303Z,51.20
2017-12-20T19:18:16.606Z,54.33
2017-12-20T19:20:45.760Z,58.57
2017-12-20T19:23:14.836Z,50.70
2017-12-20T19:25:43.966Z,50.87
2017-12-20T19:28:13.073Z,47.57
2017-12-20T19:30:41.425Z,51.73
2017-12-20T19:33:10.519Z,46.80
2017-12-20T19:35:39.587Z,52.23
2017-12-20T19:38:08.646Z,62.93
2017-12-20T19:40:36.969Z,49.70
2017-12-20T19:43:05.268Z,74.53
2017-12-20T19:45:33.644Z,63.37
2017-12-20T19:48:02.105Z,54.27
2017-12-20T19:50:30.399Z,56.03
2017-12-20T19:53:00.137Z,56.33
2017-12-20T19:55:28.428Z,65.53
2017-12-20T19:57:57.076Z,60.40
2017-12-20T20:00:25.361Z,60.97
2017-12-20T20:02:54.743Z,56.53
2017-12-20T20:05:24.150Z,64.63
2017-12-20T20:07:53.498Z,48.43
2017-12-20T20:10:21.764Z,57.77
2017-12-20T20:12:50.043Z,54.13
2017-12-20T20:15:18.703Z,49.80
2017-12-20T20:17:47.274Z,56.10
2017-12-20T20:20:17.120Z,51.47
2017-12-20T20:22:48.557Z,55.60
2017-12-20T20:25:17.077Z,45.60
2017-12-20T20:27:45.370Z,53.07
2017-12-20T20:30:15.012Z,43.93
2017-12-20T20:32:44.526Z,46.70
2017-12-20T20:35:12.860Z,54.10
2017-12-20T20:37:41.494Z,50.43
2017-12-20T20:40:10.086Z,52.60
2017-12-20T20:42:39.184Z,49.47
2017-12-20T20:45:08.781Z,60.67
2017-12-20T20:47:37.113Z,44.03
2017-12-20T20:50:05.748Z,45.17
2017-12-20T20:52:34.137Z,45.70
2017-12-20T20:55:02.706Z,48.37
2017-12-20T20:57:32.707Z,56.80
2017-12-20T21:00:01.107Z,60.40
2017-12-20T21:02:29.528Z,58.97
2017-12-20T21:04:58.692Z,45.67
2017-12-20T21:07:27.264Z,42.77
2017-12-20T21:09:56.326Z,42.07
2017-12-20T21:12:24.674Z,37.53
2017-12-20T21:14:52.943Z,45.13
2017-12-20T21:17:21.264Z,43.37
2017-12-20T21:19:49.588Z,44.80
2017-12-20T21:22:19.089Z,38.27
2017-12-20T21:24:47.793Z,33.10
2017-12-20T21:27:16.094Z,33.23
2017-12-20T21:29:44.351Z,38.70
2017-12-20T21:32:12.664Z,37.57
2017-12-20T21:34:40.914Z,38.13
2017-12-20T21:37:09.196Z,35.10
2017-12-20T21:39:37.500Z,41.03
2017-12-20T21:42:06.262Z,45.87
2017-12-20T21:44:34.608Z,45.63
2017-12-20T21:47:02.851Z,43.60
2017-12-20T21:49:31.139Z,42.40
2017-12-20T21:51:59.434Z,46.37
2017-12-20T21:54:27.707Z,43.47
2017-12-20T21:56:55.998Z,40.17
2017-12-20T21:59:25.437Z,41.90
2017-12-20T22:01:53.707Z,34.90
2017-12-20T22:04:22.039Z,38.90
2017-12-20T22:06:50.316Z,52.63
2017-12-20T22:09:18.613Z,36.10
2017-12-20T22:11:46.893Z,39.40
2017-12-20T22:14:15.921Z,44.73
2017-12-20T22:16:44.192Z,35.10
2017-12-20T22:19:12.485Z,38.37
2017-12-20T22:21:40.724Z,39.60
2017-12-20T22:24:09.769Z,39.80
2017-12-20T22:26:38.007Z,37.03
2017-12-20T22:29:07.050Z,45.00
2017-12-20T22:31:35.370Z,37.07
2017-12-20T22:34:03.603Z,37.17
2017-12-20T22:36:31.927Z,38.57
2017-12-20T22:39:00.143Z,41.43
2017-12-20T22:41:28.458Z,40.33
2017-12-20T22:43:57.179Z,32.97
2017-12-20T22:46:25.459Z,32.43
2017-12-20T22:48:53.723Z,32.40
2017-12-20T22:51:22.758Z,37.53
2017-12-20T22:53:51.022Z,34.03
2017-12-20T22:56:19.274Z,42.23
2017-12-20T22:58:48.315Z,37.47
2017-12-20T23:01:16.817Z,36.33
2017-12-20T23:03:45.052Z,37.63
2017-12-20T23:06:13.360Z,43.80
2017-12-20T23:08:41.637Z,37.40
2017-12-20T23:11:09.918Z,38.07
2017-12-20T23:13:38.203Z,37.30
2017-12-20T23:16:06.484Z,28.93
2017-12-20T23:18:34.716Z,36.07
2017-12-20T23:21:02.949Z,37.50
2017-12-20T23:23:31.213Z,37.70
2017-12-20T23:25:59.475Z,36.20
2017-12-20T23:28:28.043Z,40.67
2017-12-20T23:30:56.281Z,32.40
2017-12-20T23:33:25.318Z,35.70
2017-12-20T23:35:53.625Z,29.83
2017-12-20T23:38:21.899Z,33.33
2017-12-20T23:40:50.149Z,30.93
2017-12-20T23:43:18.424Z,34.23
2017-12-20T23:45:46.703Z,40.67
2017-12-20T23:48:15.006Z,31.90
2017-12-20T23:50:43.284Z,28.53
2017-12-20T23:53:11.584Z,41.73
2017-12-20T23:55:39.863Z,40.13
2017-12-20T23:58:08.110Z,32.23
